Time;durP1;ratioP1;P1;durP2;ratioP2;P2;SDS_P1;SDS_P2;PMS_P1;PMS_P2;Temp;Humidity;BMP_temperature;BMP_pressure;BME280_temperature;BME280_humidity;BME280_pressure;Samples;Min_cycle;Max_cycle;Signal;HPM_P1;HPM_P2
2023/10/05 00:04:32;;;;;;;5.90;4.13;;;19.20;69.90;;;;;;5036293;28;20030;-62
2023/10/05 00:07:04;;;;;;;8.27;4.90;;;19.20;69.90;;;;;;5036581;28;20056;-62
2023/10/05 00:09:30;;;;;;;7.03;4.38;;;19.20;69.90;;;;;;5036229;28;20156;-62
2023/10/05 00:12:08;;;;;;;6.72;4.55;;;19.20;70.00;;;;;;5036774;28;20043;-62
2023/10/05 00:14:36;;;;;;;6.95;4.30;;;19.20;70.00;;;;;;5036154;28;20025;-62
2023/10/05 00:17:07;;;;;;;7.00;4.30;;;19.20;70.00;;;;;;5036082;28;20113;-63
2023/10/05 00:19:37;;;;;;;7.57;4.50;;;19.20;70.20;;;;;;5036063;28;20029;-62
2023/10/05 00:22:04;;;;;;;8.32;4.43;;;19.20;70.30;;;;;;5036079;28;20029;-62
2023/10/05 00:24:37;;;;;;;8.50;4.78;;;19.20;70.40;;;;;;5035909;28;20030;-62
2023/10/05 00:27:08;;;;;;;6.50;4.20;;;19.20;70.40;;;;;;5036226;28;20025;-62
2023/10/05 00:29:41;;;;;;;8.07;4.45;;;19.20;70.50;;;;;;5036266;28;20040;-62
2023/10/05 00:32:33;;;;;;;5.83;4.20;;;19.20;70.50;;;;;;5035910;28;20025;-62
2023/10/05 00:35:43;;;;;;;7.43;4.40;;;19.20;70.60;;;;;;5035825;28;20105;-62
2023/10/05 00:37:51;;;;;;;6.70;4.25;;;19.20;70.60;;;;;;5030179;28;20041;-62
2023/10/05 00:43:24;;;;;;;8.18;5.07;;;19.20;70.80;;;;;;5075662;28;20357;-62
2023/10/05 00:45:57;;;;;;;7.55;4.28;;;19.20;70.80;;;;;;5075858;28;20032;-62
2023/10/05 00:48:34;;;;;;;6.63;4.32;;;19.10;70.80;;;;;;5075498;28;20378;-62
2023/10/05 00:51:14;;;;;;;9.77;5.00;;;19.10;70.90;;;;;;5075798;28;20020;-62
2023/10/05 00:53:42;;;;;;;8.30;5.25;;;19.10;70.90;;;;;;5057844;28;20035;-62
2023/10/05 00:56:15;;;;;;;7.35;4.88;;;19.10;71.00;;;;;;5075424;28;20029;-62
2023/10/05 00:58:50;;;;;;;5.82;4.40;;;19.10;71.00;;;;;;5075296;28;20346;-62
2023/10/05 01:01:33;;;;;;;7.95;5.05;;;19.00;71.00;;;;;;5075306;28;20043;-62
2023/10/05 01:07:06;;;;;;;10.15;5.22;;;18.90;71.30;;;;;;5075184;28;20078;-63
2023/10/05 01:14:52;;;;;;;10.32;5.90;;;18.90;71.50;;;;;;5075273;28;20058;-62
2023/10/05 01:17:27;;;;;;;7.75;5.22;;;18.90;71.60;;;;;;5075170;28;20021;-63
2023/10/05 01:20:22;;;;;;;7.78;5.20;;;18.90;71.70;;;;;;5075125;28;20042;-62
2023/10/05 01:22:50;;;;;;;;;;;18.90;71.80;;;;;;5072036;28;20465;-63
2023/10/05 01:25:21;;;;;;;6.57;4.20;;;18.80;72.10;;;;;;5075047;28;19931;-62
2023/10/05 01:27:52;;;;;;;7.18;4.47;;;18.90;71.70;;;;;;5075358;28;20023;-63
2023/10/05 01:30:21;;;;;;;7.47;4.28;;;18.90;71.30;;;;;;5075026;28;20357;-62
2023/10/05 01:32:49;;;;;;;6.95;4.43;;;19.00;70.80;;;;;;5075091;28;20111;-62
2023/10/05 01:35:23;;;;;;;5.85;3.90;;;19.10;70.50;;;;;;5075021;28;20047;-62
2023/10/05 01:37:53;;;;;;;7.82;4.00;;;19.10;69.40;;;;;;5074880;28;20032;-62
2023/10/05 01:40:30;;;;;;;6.28;4.40;;;19.10;69.10;;;;;;5074767;28;20545;-62
2023/10/05 01:43:03;;;;;;;7.13;4.65;;;19.10;69.10;;;;;;5074975;28;20025;-62
2023/10/05 01:45:34;;;;;;;7.55;4.50;;;19.10;69.20;;;;;;5074699;28;20376;-62
2023/10/05 01:48:05;;;;;;;8.23;4.45;;;18.90;69.30;;;;;;5074814;28;20035;-62
2023/10/05 01:50:32;;;;;;;7.65;4.30;;;18.90;69.50;;;;;;5074925;28;20099;-62
2023/10/05 01:53:08;;;;;;;7.05;4.28;;;18.80;69.70;;;;;;5074856;28;20021;-62
2023/10/05 01:55:39;;;;;;;9.52;4.03;;;18.80;69.80;;;;;;5074862;28;20111;-63
2023/10/05 01:58:08;;;;;;;6.68;3.88;;;18.80;69.90;;;;;;5074736;28;20024;-62
2023/10/05 02:00:38;;;;;;;6.38;3.92;;;18.70;70.00;;;;;;5075025;28;20102;-62
2023/10/05 02:03:12;;;;;;;5.88;3.65;;;18.70;70.10;;;;;;5074761;28;20032;-62
2023/10/05 02:05:38;;;;;;;;;;;18.70;70.20;;;;;;5075093;28;20029;-62
2023/10/05 02:08:05;;;;;;;6.90;3.72;;;18.60;70.40;;;;;;5074706;28;19911;-62
2023/10/05 02:10:45;;;;;;;14.45;5.80;;;18.60;70.40;;;;;;5074754;28;20023;-62
2023/10/05 02:13:14;;;;;;;7.47;4.43;;;18.50;70.30;;;;;;5075318;28;20030;-62
2023/10/05 02:15:41;;;;;;;8.07;4.90;;;18.40;70.30;;;;;;5075679;28;20025;-62
2023/10/05 02:18:23;;;;;;;8.50;4.75;;;18.40;69.80;;;;;;5078361;28;20055;-62
2023/10/05 02:23:53;;;;;;;8.50;4.53;;;18.40;69.80;;;;;;5078171;28;20040;-62
2023/10/05 02:26:53;;;;;;;7.00;4.45;;;18.40;69.80;;;;;;5078171;28;20099;-62
2023/10/05 02:29:14;;;;;;;6.00;4.10;;;18.40;69.70;;;;;;5076877;28;20158;-62
2023/10/05 02:32:15;;;;;;;7.28;4.40;;;18.40;69.70;;;;;;5078028;28;20020;-62
2023/10/05 02:37:11;;;;;;;8.75;5.07;;;18.40;69.80;;;;;;5077934;28;20473;-62
2023/10/05 02:39:39;;;;;;;6.78;4.20;;;18.40;70.00;;;;;;5078168;28;20056;-62
2023/10/05 02:42:12;;;;;;;6.13;4.10;;;18.30;70.10;;;;;;5060932;28;20020;-62
2023/10/05 02:44:45;;;;;;;7.30;4.32;;;18.30;70.30;;;;;;5077738;28;20036;-62
2023/10/05 02:47:14;;;;;;;6.97;4.18;;;18.20;70.40;;;;;;5077659;28;20028;-62
2023/10/05 02:49:44;;;;;;;8.88;4.93;;;18.20;70.50;;;;;;5077665;28;20143;-62
2023/10/05 02:52:16;;;;;;;8.07;4.93;;;18.10;70.60;;;;;;5077665;28;20020;-63
2023/10/05 02:54:52;;;;;;;8.30;4.75;;;18.10;70.70;;;;;;5077604;28;20040;-63
2023/10/05 02:57:21;;;;;;;8.70;4.88;;;18.00;70.80;;;;;;5078155;28;20052;-62
2023/10/05 02:59:50;;;;;;;7.88;5.35;;;18.00;70.90;;;;;;5077463;28;20109;-62
2023/10/05 03:02:18;;;;;;;9.30;5.45;;;18.00;71.00;;;;;;5078323;28;20123;-62
2023/10/05 03:04:45;;;;;;;10.45;6.22;;;17.90;71.20;;;;;;5077651;28;20102;-62
2023/10/05 03:07:15;;;;;;;8.48;5.53;;;17.90;71.40;;;;;;5077400;28;20078;-62
2023/10/05 03:09:46;;;;;;;9.52;5.80;;;17.80;71.60;;;;;;5077285;28;20024;-62
2023/10/05 03:12:12;;;;;;;10.27;5.90;;;17.70;71.80;;;;;;5077907;28;20329;-62
2023/10/05 03:14:45;;;;;;;11.63;6.40;;;17.70;71.90;;;;;;5077291;28;20414;-62
2023/10/05 03:17:19;;;;;;;10.52;6.38;;;17.70;72.20;;;;;;5077159;28;20074;-62
2023/10/05 03:19:46;;;;;;;11.55;6.45;;;17.60;72.40;;;;;;5077165;28;20513;-62
2023/10/05 03:22:15;;;;;;;9.65;6.35;;;17.60;72.50;;;;;;5077427;28;20444;-62
2023/10/05 03:24:47;;;;;;;9.23;5.90;;;17.60;72.70;;;;;;5076952;28;20043;-62
2023/10/05 03:27:21;;;;;;;8.83;6.03;;;17.60;72.70;;;;;;5076226;28;20361;-62
2023/10/05 03:29:52;;;;;;;10.48;6.30;;;17.60;72.80;;;;;;5076768;28;20412;-62
2023/10/05 03:32:28;;;;;;;11.82;6.80;;;17.60;72.90;;;;;;5076874;28;20028;-62
2023/10/05 03:35:03;;;;;;;11.50;6.90;;;17.50;73.10;;;;;;5077218;28;20036;-62
2023/10/05 03:37:31;;;;;;;10.70;7.18;;;17.60;73.20;;;;;;5076728;28;20032;-62
2023/10/05 03:42:33;;;;;;;13.00;8.60;;;17.40;73.10;;;;;;5076835;28;20118;-62
2023/10/05 03:45:08;;;;;;;11.43;7.40;;;17.30;73.40;;;;;;5077151;28;20032;-62
2023/10/05 03:47:37;;;;;;;12.43;7.15;;;17.20;73.50;;;;;;5076888;28;20100;-62
2023/10/05 03:50:08;;;;;;;12.15;7.70;;;17.10;73.70;;;;;;5076515;28;20024;-62
2023/10/05 03:52:34;;;;;;;11.35;6.80;;;17.10;73.80;;;;;;5076559;28;20021;-62
2023/10/05 03:55:10;;;;;;;12.98;7.32;;;17.10;73.80;;;;;;5076750;28;20372;-62
2023/10/05 03:57:42;;;;;;;11.93;7.60;;;17.00;74.00;;;;;;5076345;28;20468;-63
2023/10/05 04:00:37;;;;;;;11.20;6.45;;;17.00;74.10;;;;;;5074891;28;20047;-63
2023/10/05 04:03:06;;;;;;;11.05;6.95;;;16.90;74.10;;;;;;5076656;28;20067;-62
2023/10/05 04:05:33;;;;;;;12.38;7.18;;;16.90;74.40;;;;;;5076115;28;20112;-62
2023/10/05 04:08:17;;;;;;;14.05;7.30;;;16.90;74.50;;;;;;5076704;28;20052;-62
2023/10/05 04:10:54;;;;;;;11.05;7.07;;;16.90;74.50;;;;;;5076515;28;20020;-62
2023/10/05 04:13:22;;;;;;;11.73;6.72;;;16.90;74.60;;;;;;5076444;28;20020;-62
2023/10/05 04:15:56;;;;;;;13.73;7.55;;;16.80;74.80;;;;;;5076006;28;20033;-62
2023/10/05 04:18:24;;;;;;;12.73;6.80;;;16.90;74.80;;;;;;5076561;28;20039;-62
2023/10/05 04:20:50;;;;;;;12.05;6.85;;;16.90;74.80;;;;;;5075999;28;20024;-62
2023/10/05 04:23:28;;;;;;;10.77;6.90;;;16.90;75.00;;;;;;5075863;28;20037;-62
2023/10/05 04:25:56;;;;;;;11.73;7.20;;;16.90;74.90;;;;;;5076211;28;20036;-62
2023/10/05 04:28:41;;;;;;;13.38;7.47;;;16.80;74.90;;;;;;5076283;28;20028;-62
2023/10/05 04:31:21;;;;;;;10.25;7.30;;;16.80;75.00;;;;;;5075729;28;20372;-62
2023/10/05 04:33:59;;;;;;;10.70;6.75;;;16.70;75.00;;;;;;5075704;28;20037;-62
2023/10/05 04:36:25;;;;;;;10.93;7.20;;;16.70;75.00;;;;;;5076302;28;20024;-62
2023/10/05 04:38:54;;;;;;;10.70;7.18;;;16.60;75.00;;;;;;5058419;28;20036;-62
2023/10/05 04:41:28;;;;;;;12.00;7.55;;;16.60;75.10;;;;;;5075387;28;20052;-62
2023/10/05 04:43:57;;;;;;;14.25;8.02;;;16.50;75.10;;;;;;5075595;28;20028;-62
2023/10/05 04:46:25;;;;;;;12.18;7.90;;;16.50;75.20;;;;;;5075875;28;20438;-62
2023/10/05 04:49:09;;;;;;;11.73;7.85;;;16.40;75.30;;;;;;5075770;28;20017;-62
2023/10/05 04:51:41;;;;;;;;;;;16.50;75.40;;;;;;5076304;28;20055;-62
2023/10/05 04:54:10;;;;;;;12.50;7.95;;;16.50;76.20;;;;;;5075459;28;20336;-62
2023/10/05 04:56:43;;;;;;;13.73;8.60;;;16.50;75.50;;;;;;5057813;28;20024;-62
2023/10/05 05:04:28;;;;;;;15.13;9.20;;;16.50;75.60;;;;;;5075393;28;20040;-62
2023/10/05 05:07:00;;;;;;;16.98;9.10;;;16.50;76.30;;;;;;5075821;28;20028;-62
2023/10/05 05:09:29;;;;;;;13.35;8.40;;;16.50;75.90;;;;;;5075349;28;20020;-62
2023/10/05 05:12:08;;;;;;;13.00;8.25;;;16.40;75.80;;;;;;5075481;28;20107;-62
2023/10/05 05:14:41;;;;;;;12.40;8.50;;;16.40;75.90;;;;;;5075242;28;20047;-62
2023/10/05 05:17:15;;;;;;;13.57;8.77;;;16.40;75.90;;;;;;5075706;28;20064;-62
2023/10/05 05:19:42;;;;;;;16.52;10.43;;;16.50;76.00;;;;;;5075804;28;20025;-62
2023/10/05 05:22:11;;;;;;;13.50;8.73;;;16.50;76.00;;;;;;5075214;28;20036;-62
2023/10/05 05:24:44;;;;;;;14.35;9.05;;;16.50;76.20;;;;;;5075131;28;20360;-62
2023/10/05 05:29:45;;;;;;;11.40;7.50;;;16.40;75.90;;;;;;5074990;28;20115;-62
2023/10/05 05:32:12;;;;;;;13.23;8.65;;;16.40;75.80;;;;;;5057468;28;20433;-62
2023/10/05 05:34:42;;;;;;;16.00;9.82;;;16.50;75.70;;;;;;5075018;28;20040;-62
2023/10/05 05:37:25;;;;;;;14.02;9.15;;;16.40;75.70;;;;;;5075229;28;20034;-62
2023/10/05 05:39:54;;;;;;;12.63;8.48;;;16.50;75.80;;;;;;5074797;28;20130;-62
2023/10/05 05:42:20;;;;;;;14.73;8.93;;;16.50;76.00;;;;;;5057377;28;20060;-62
2023/10/05 05:44:47;;;;;;;12.57;8.10;;;16.50;76.10;;;;;;5057211;28;20100;-62
2023/10/05 05:47:15;;;;;;;14.63;8.95;;;16.60;76.20;;;;;;5075112;28;20016;-62
2023/10/05 05:49:47;;;;;;;14.13;9.52;;;16.60;76.30;;;;;;5074980;28;20031;-62
2023/10/05 05:52:14;;;;;;;13.10;9.88;;;16.70;76.20;;;;;;5077884;28;20139;-62
2023/10/05 05:54:42;;;;;;;14.68;9.18;;;16.80;76.30;;;;;;5079376;28;20051;-62
2023/10/05 05:57:11;;;;;;;15.82;10.55;;;16.90;76.50;;;;;;5061135;28;20096;-62
2023/10/05 05:59:41;;;;;;;16.95;10.65;;;16.90;76.60;;;;;;5078606;28;20032;-62
2023/10/05 06:02:10;;;;;;;14.40;9.85;;;16.90;76.10;;;;;;5078484;28;20033;-62
2023/10/05 06:04:41;;;;;;;13.80;9.82;;;17.00;76.50;;;;;;5078540;28;20028;-62
2023/10/05 06:07:13;;;;;;;14.88;9.90;;;17.20;76.80;;;;;;5078402;28;20055;-62
2023/10/05 06:09:47;;;;;;;21.70;13.55;;;17.40;77.00;;;;;;5078421;28;20021;-62
2023/10/05 06:12:16;;;;;;;18.08;11.32;;;17.50;76.30;;;;;;5078778;28;20028;-62
2023/10/05 06:14:43;;;;;;;16.23;10.52;;;17.70;75.80;;;;;;5078357;28;20024;-62
2023/10/05 06:17:14;;;;;;;20.98;12.75;;;17.80;75.90;;;;;;5078593;28;20027;-62
2023/10/05 06:19:40;;;;;;;18.73;11.43;;;17.90;75.80;;;;;;5079098;28;20029;-62
2023/10/05 06:22:07;;;;;;;14.07;10.30;;;17.90;75.60;;;;;;5078296;28;20112;-62
2023/10/05 06:24:42;;;;;;;17.13;9.80;;;18.00;75.50;;;;;;5078484;28;20359;-62
2023/10/05 06:27:08;;;;;;;18.33;9.50;;;18.00;75.30;;;;;;5078109;28;20545;-62
2023/10/05 06:29:36;;;;;;;15.45;9.68;;;18.00;75.40;;;;;;5078431;28;20028;-62
2023/10/05 06:32:04;;;;;;;18.80;11.98;;;18.10;75.30;;;;;;5078096;28;20394;-62
2023/10/05 06:34:34;;;;;;;14.57;9.82;;;18.30;75.30;;;;;;5077945;28;20043;-62
2023/10/05 06:37:02;;;;;;;16.35;10.35;;;18.30;74.90;;;;;;5077876;28;20025;-62
2023/10/05 06:39:30;;;;;;;14.18;9.15;;;18.40;75.00;;;;;;5077657;28;20052;-62
2023/10/05 06:41:59;;;;;;;16.95;10.50;;;18.40;75.00;;;;;;5078192;28;20032;-62
2023/10/05 06:44:25;;;;;;;14.35;9.88;;;18.60;75.00;;;;;;5077844;28;20028;-62
2023/10/05 06:46:53;;;;;;;15.10;10.73;;;18.70;74.70;;;;;;5077995;28;20103;-62
2023/10/05 06:49:19;;;;;;;17.92;9.63;;;18.90;74.80;;;;;;5077759;28;20082;-62
2023/10/05 06:51:47;;;;;;;14.68;8.85;;;19.20;74.50;;;;;;5060143;28;20028;-62
2023/10/05 06:54:14;;;;;;;14.73;9.27;;;19.50;74.00;;;;;;5077643;28;20040;-62
2023/10/05 06:56:48;;;;;;;13.32;9.75;;;19.70;73.50;;;;;;5077642;28;20032;-62
2023/10/05 06:59:20;;;;;;;14.15;9.38;;;20.00;72.90;;;;;;5077953;28;20077;-62
2023/10/05 07:01:52;;;;;;;13.27;9.18;;;20.30;72.10;;;;;;5077119;28;20049;-63
2023/10/05 07:04:24;;;;;;;12.80;8.93;;;20.50;71.40;;;;;;5076646;28;20044;-62
2023/10/05 07:06:52;;;;;;;16.50;10.80;;;20.60;70.80;;;;;;5077417;28;20090;-62
2023/10/05 07:09:18;;;;;;;17.35;10.57;;;20.80;70.20;;;;;;5077929;28;20271;-62
2023/10/05 07:11:47;;;;;;;14.55;10.27;;;20.80;69.40;;;;;;5077698;28;20445;-62
2023/10/05 07:14:16;;;;;;;17.75;10.80;;;20.90;69.60;;;;;;5077912;28;20029;-62
2023/10/05 07:16:49;;;;;;;17.98;13.15;;;20.90;69.50;;;;;;5077433;28;20051;-62
2023/10/05 07:19:19;;;;;;;22.83;17.50;;;21.00;69.40;;;;;;5077223;28;20024;-62
2023/10/05 07:21:47;;;;;;;17.58;12.82;;;21.20;69.00;;;;;;5077780;28;20089;-62
2023/10/05 07:24:15;;;;;;;17.52;11.95;;;21.30;68.50;;;;;;5077129;28;20425;-63
2023/10/05 07:26:41;;;;;;;13.93;8.48;;;21.40;68.50;;;;;;5077123;28;20028;-62
2023/10/05 07:29:08;;;;;;;11.48;7.03;;;21.50;68.30;;;;;;5077015;28;20099;-62
2023/10/05 07:31:35;;;;;;;12.88;8.23;;;21.70;68.10;;;;;;5076949;28;20035;-63
2023/10/05 07:34:04;;;;;;;14.35;9.82;;;21.90;67.60;;;;;;5077239;28;20028;-63
2023/10/05 07:36:31;;;;;;;13.07;7.32;;;22.10;66.60;;;;;;5076807;28;20055;-62
2023/10/05 07:38:58;;;;;;;12.85;7.45;;;22.20;66.30;;;;;;5076829;28;20032;-62
2023/10/05 07:41:24;;;;;;;10.30;7.13;;;22.40;66.10;;;;;;5076606;28;20062;-63
2023/10/05 07:46:21;;;;;;;12.50;7.60;;;22.60;65.30;;;;;;5077572;28;20027;-62
2023/10/05 07:48:47;;;;;;;14.75;7.97;;;22.70;64.70;;;;;;5076724;28;20100;-62
2023/10/05 07:51:17;;;;;;;13.60;7.65;;;22.80;64.50;;;;;;5076610;28;20349;-63
2023/10/05 07:53:46;;;;;;;11.65;7.00;;;22.90;63.90;;;;;;5076526;28;20021;-63
2023/10/05 07:56:13;;;;;;;13.82;8.10;;;23.00;63.70;;;;;;5076494;28;20077;-62
2023/10/05 07:58:42;;;;;;;14.52;7.25;;;23.10;63.30;;;;;;5076378;28;20020;-62
2023/10/05 08:06:01;;;;;;;9.18;6.03;;;23.20;63.10;;;;;;5077052;28;20024;-62
2023/10/05 08:08:27;;;;;;;9.25;5.50;;;23.30;62.80;;;;;;5076155;28;20036;-62
2023/10/05 08:10:57;;;;;;;11.13;5.95;;;23.40;62.10;;;;;;5076204;28;20459;-62
2023/10/05 08:13:23;;;;;;;7.20;4.10;;;23.40;60.30;;;;;;5075798;28;20042;-62
2023/10/05 08:15:54;;;;;;;7.05;4.50;;;23.40;60.20;;;;;;5058515;28;20376;-62
2023/10/05 08:18:25;;;;;;;8.82;4.70;;;23.40;57.90;;;;;;5076069;28;20036;-62
2023/10/05 08:20:53;;;;;;;8.40;5.10;;;23.40;58.30;;;;;;5075987;28;20033;-62
2023/10/05 08:23:20;;;;;;;8.35;4.93;;;23.40;56.70;;;;;;5076226;28;20060;-62
2023/10/05 08:25:50;;;;;;;7.28;4.50;;;23.40;52.10;;;;;;5075871;28;20396;-62
2023/10/05 08:28:20;;;;;;;7.65;4.10;;;23.30;53.60;;;;;;5075867;28;20021;-62
2023/10/05 08:31:12;;;;;;;7.18;5.13;;;23.20;54.90;;;;;;5075768;28;20021;-62
2023/10/05 08:33:37;;;;;;;6.75;3.90;;;23.30;54.90;;;;;;5074765;28;20107;-62
2023/10/05 08:36:06;;;;;;;6.25;4.20;;;23.30;54.90;;;;;;5058148;28;20024;-62
2023/10/05 08:38:35;;;;;;;5.80;3.83;;;23.40;55.00;;;;;;5075661;28;20452;-62
2023/10/05 08:41:07;;;;;;;8.32;4.88;;;23.50;54.40;;;;;;5075631;28;20078;-62
2023/10/05 08:43:40;;;;;;;9.38;4.97;;;23.50;54.50;;;;;;5075673;28;20028;-62
2023/10/05 08:46:12;;;;;;;7.80;4.53;;;23.60;54.00;;;;;;5075662;28;20082;-62
2023/10/05 08:48:38;;;;;;;7.13;4.03;;;23.60;53.80;;;;;;5076100;28;20025;-62
2023/10/05 08:51:12;;;;;;;6.38;3.90;;;23.70;53.20;;;;;;5075622;28;20099;-62
2023/10/05 08:53:44;;;;;;;6.53;4.03;;;23.60;52.50;;;;;;5075820;28;20029;-62
2023/10/05 08:56:15;;;;;;;8.07;3.70;;;23.60;53.00;;;;;;5075528;28;20031;-62
2023/10/05 08:58:47;;;;;;;6.80;3.92;;;23.70;52.30;;;;;;5075399;28;20029;-62
2023/10/05 09:01:35;;;;;;;7.53;3.80;;;23.70;52.00;;;;;;5075452;28;20029;-62
2023/10/05 09:07:08;;;;;;;8.35;4.00;;;23.70;52.20;;;;;;5075485;28;20058;-62
2023/10/05 09:09:38;;;;;;;5.75;3.50;;;23.80;50.10;;;;;;5075737;28;20352;-62
2023/10/05 09:12:35;;;;;;;7.47;3.55;;;23.80;50.60;;;;;;5075675;28;20017;-62
2023/10/05 09:15:26;;;;;;;6.30;3.53;;;23.70;50.70;;;;;;5075656;28;20036;-62
2023/10/05 09:17:58;;;;;;;7.55;3.50;;;23.70;50.00;;;;;;5075550;28;20021;-62
2023/10/05 09:20:31;;;;;;;5.95;3.70;;;23.80;51.20;;;;;;5075290;28;20036;-62
2023/10/05 09:23:20;;;;;;;7.75;3.90;;;23.80;51.20;;;;;;5073927;28;20094;-62
2023/10/05 09:25:46;;;;;;;7.78;4.20;;;23.80;50.30;;;;;;5075791;28;20043;-62
2023/10/05 09:28:51;;;;;;;5.80;3.20;;;23.80;49.70;;;;;;5079591;28;20031;-63
2023/10/05 09:31:36;;;;;;;5.72;3.33;;;23.80;49.60;;;;;;5079308;28;20033;-62
2023/10/05 09:34:05;;;;;;;6.35;3.50;;;23.90;49.00;;;;;;5079635;28;20322;-62
2023/10/05 09:36:37;;;;;;;6.78;3.90;;;23.90;50.70;;;;;;5079475;28;20101;-62
2023/10/05 09:39:04;;;;;;;6.32;3.60;;;23.90;48.90;;;;;;5079151;28;20024;-62
2023/10/05 09:41:35;;;;;;;7.35;3.78;;;23.90;48.80;;;;;;5079011;28;20048;-62
2023/10/05 09:44:07;;;;;;;6.75;4.10;;;23.90;49.40;;;;;;5079004;28;20353;-62
2023/10/05 09:46:39;;;;;;;5.90;3.60;;;23.90;49.60;;;;;;5079044;28;20099;-62
2023/10/05 09:49:09;;;;;;;8.02;4.25;;;23.90;49.50;;;;;;5079517;28;20459;-62
2023/10/05 09:51:42;;;;;;;6.65;3.90;;;23.90;50.10;;;;;;5061540;28;20025;-62
2023/10/05 09:54:12;;;;;;;5.68;3.75;;;23.90;50.30;;;;;;5078842;28;20024;-62
2023/10/05 09:56:41;;;;;;;6.18;3.90;;;23.90;49.90;;;;;;5061203;28;20028;-62
2023/10/05 09:59:15;;;;;;;7.63;4.15;;;24.00;49.80;;;;;;5078601;28;20465;-62
2023/10/05 10:01:54;;;;;;;7.03;3.80;;;24.00;49.90;;;;;;5078705;28;20078;-62
2023/10/05 10:04:47;;;;;;;5.60;3.35;;;24.00;48.50;;;;;;5078807;28;20042;-62
2023/10/05 10:07:26;;;;;;;6.07;3.50;;;24.00;50.00;;;;;;5078542;28;20400;-62
2023/10/05 10:09:55;;;;;;;8.18;3.65;;;24.10;49.80;;;;;;5078569;28;20086;-62
2023/10/05 10:12:38;;;;;;;8.77;3.92;;;24.10;49.70;;;;;;5078737;28;20067;-62
2023/10/05 10:15:24;;;;;;;7.63;3.78;;;24.10;48.70;;;;;;5078467;28;20032;-62
2023/10/05 10:18:30;;;;;;;7.25;3.78;;;24.10;49.00;;;;;;5078177;28;20039;-62
2023/10/05 10:21:08;;;;;;;9.13;4.30;;;24.20;49.30;;;;;;5078313;28;20104;-62
2023/10/05 10:23:38;;;;;;;8.30;3.55;;;24.20;48.80;;;;;;5078625;28;20048;-62
2023/10/05 10:26:16;;;;;;;6.95;4.10;;;24.20;48.80;;;;;;5078099;28;20414;-62
2023/10/05 10:31:42;;;;;;;6.20;3.40;;;24.20;49.40;;;;;;5078169;28;20029;-62
2023/10/05 10:34:31;;;;;;;6.07;3.63;;;24.30;49.40;;;;;;5078110;28;20032;-62
2023/10/05 10:39:33;;;;;;;7.22;3.90;;;24.50;49.70;;;;;;5076785;28;20427;-62
2023/10/05 10:42:12;;;;;;;8.25;3.80;;;24.50;49.10;;;;;;5077955;28;20032;-62
2023/10/05 10:45:02;;;;;;;7.82;3.40;;;24.50;48.40;;;;;;5061776;28;20047;-62
2023/10/05 10:47:28;;;;;;;4.93;3.35;;;24.50;49.10;;;;;;5077287;28;20358;-62
2023/10/05 10:50:10;;;;;;;7.45;4.10;;;24.50;49.30;;;;;;5078360;28;20112;-62
2023/10/05 10:52:39;;;;;;;7.07;3.70;;;24.60;49.20;;;;;;5077846;28;20446;-62
2023/10/05 10:55:15;;;;;;;7.43;3.83;;;24.70;48.70;;;;;;5077791;28;20107;-62
2023/10/05 10:57:47;;;;;;;6.03;3.70;;;24.60;48.80;;;;;;5078004;28;20029;-62
2023/10/05 11:03:09;;;;;;;6.93;3.78;;;24.70;48.80;;;;;;5077930;28;20126;-62
2023/10/05 11:05:47;;;;;;;5.28;3.40;;;24.70;48.80;;;;;;5078577;28;20114;-62
2023/10/05 11:08:23;;;;;;;8.38;3.40;;;24.70;49.10;;;;;;5077443;28;20032;-62
2023/10/05 11:10:59;;;;;;;6.65;4.03;;;24.80;49.00;;;;;;5077782;28;20040;-62
2023/10/05 11:13:33;;;;;;;8.13;3.80;;;24.80;48.90;;;;;;5077410;28;20028;-62
2023/10/05 11:16:00;;;;;;;7.10;3.67;;;24.90;49.00;;;;;;5077309;28;20051;-62
2023/10/05 11:18:39;;;;;;;8.40;3.97;;;24.90;48.20;;;;;;5077338;28;20024;-63
2023/10/05 11:21:16;;;;;;;5.45;3.42;;;24.90;48.80;;;;;;5077878;28;20102;-62
2023/10/05 11:23:45;;;;;;;5.55;3.35;;;24.80;48.80;;;;;;5077177;28;20029;-62
2023/10/05 11:26:18;;;;;;;6.38;3.90;;;24.90;48.60;;;;;;5077037;28;20081;-62
2023/10/05 11:28:52;;;;;;;;;;;24.80;48.40;;;;;;5077723;28;20369;-62
2023/10/05 11:31:26;;;;;;;6.70;3.70;;;24.90;46.80;;;;;;5077047;28;19908;-62
2023/10/05 11:34:00;;;;;;;5.25;3.33;;;24.90;48.20;;;;;;5059595;28;20030;-62
2023/10/05 11:36:39;;;;;;;4.80;3.22;;;24.90;48.10;;;;;;5076903;28;20051;-62
2023/10/05 11:39:26;;;;;;;6.38;3.78;;;24.90;48.10;;;;;;5077108;28;20047;-62
2023/10/05 11:41:58;;;;;;;5.68;3.60;;;24.90;47.70;;;;;;5036924;28;20048;-62
2023/10/05 11:44:27;;;;;;;7.30;3.70;;;24.90;46.90;;;;;;5037002;28;20045;-62
2023/10/05 11:46:54;;;;;;;7.90;4.55;;;24.90;47.40;;;;;;5036701;28;20055;-62
2023/10/05 11:49:41;;;;;;;5.85;3.55;;;24.90;47.40;;;;;;5036584;28;20029;-62
2023/10/05 11:52:17;;;;;;;7.88;4.43;;;24.90;47.30;;;;;;5037016;28;20021;-62
2023/10/05 11:54:45;;;;;;;;;;;24.80;46.60;;;;;;5037671;28;20057;-62
2023/10/05 11:57:16;;;;;;;6.65;3.60;;;24.90;46.20;;;;;;5036595;28;19919;-62
2023/10/05 11:59:45;;;;;;;6.05;3.25;;;24.90;47.60;;;;;;5036306;28;20037;-63
2023/10/05 12:02:11;;;;;;;6.72;4.15;;;24.90;48.10;;;;;;5036520;28;20025;-62
2023/10/05 12:04:39;;;;;;;5.82;3.60;;;24.90;47.80;;;;;;5036354;28;20124;-62
2023/10/05 12:07:10;;;;;;;6.40;3.70;;;25.00;47.80;;;;;;5036192;28;20036;-63
2023/10/05 12:09:43;;;;;;;7.60;3.55;;;24.90;47.80;;;;;;5036622;28;20145;-62
2023/10/05 12:15:12;;;;;;;8.77;4.63;;;25.00;47.50;;;;;;5036866;28;20040;-62
2023/10/05 12:17:39;;;;;;;9.98;5.63;;;24.90;46.80;;;;;;5036716;28;20088;-62
2023/10/05 12:20:12;;;;;;;6.82;4.10;;;24.90;46.60;;;;;;5036182;28;20045;-62
2023/10/05 12:22:39;;;;;;;7.22;4.20;;;24.90;47.60;;;;;;5035195;28;20087;-62
2023/10/05 12:25:07;;;;;;;7.45;4.10;;;24.90;47.80;;;;;;5036548;28;20105;-62
2023/10/05 12:27:35;;;;;;;8.10;5.10;;;24.90;47.40;;;;;;5035910;28;20025;-62
2023/10/05 12:30:15;;;;;;;6.10;3.95;;;25.00;48.00;;;;;;5035982;28;20324;-62
2023/10/05 12:35:18;;;;;;;8.90;4.32;;;25.10;47.90;;;;;;5036721;28;20037;-62
2023/10/05 12:37:49;;;;;;;7.00;4.10;;;25.20;47.90;;;;;;5035729;28;20033;-62
2023/10/05 12:40:17;;;;;;;6.40;3.75;;;25.00;47.20;;;;;;5051777;28;20358;-62
2023/10/05 12:42:56;;;;;;;8.35;4.47;;;24.90;47.40;;;;;;5075445;28;20032;-62
2023/10/05 12:45:24;;;;;;;8.10;4.13;;;24.90;47.90;;;;;;5075613;28;20357;-62
2023/10/05 12:48:07;;;;;;;8.20;4.07;;;25.10;48.20;;;;;;5075479;28;20031;-62
2023/10/05 12:50:44;;;;;;;6.28;4.10;;;25.10;47.10;;;;;;5057927;28;20483;-62
2023/10/05 12:53:17;;;;;;;6.88;4.30;;;25.20;47.30;;;;;;5075157;28;20031;-62
2023/10/05 12:55:43;;;;;;;7.25;4.10;;;25.20;47.80;;;;;;5075420;28;20449;-62
2023/10/05 12:58:09;;;;;;;7.05;4.10;;;25.30;47.60;;;;;;5057989;28;20042;-62
2023/10/05 13:00:40;;;;;;;6.32;3.97;;;25.30;48.00;;;;;;5075332;28;20066;-62
2023/10/05 13:03:06;;;;;;;9.27;5.05;;;25.30;48.10;;;;;;5075749;28;20020;-63
2023/10/05 13:05:39;;;;;;;7.15;4.70;;;25.40;47.90;;;;;;5057682;28;20046;-62
2023/10/05 13:08:10;;;;;;;;;;;25.40;48.00;;;;;;5075147;28;20074;-62
2023/10/05 13:10:37;;;;;;;6.70;3.95;;;25.40;46.70;;;;;;5075627;28;20015;-62
2023/10/05 13:13:17;;;;;;;22.48;5.72;;;25.40;48.10;;;;;;5075243;28;20036;-61
2023/10/05 13:15:46;;;;;;;31.38;6.88;;;25.50;48.10;;;;;;5057666;28;20056;-64
2023/10/05 13:18:19;;;;;;;13.60;5.07;;;25.50;48.00;;;;;;5075246;28;20449;-66
2023/10/05 13:23:19;;;;;;;11.38;4.97;;;25.50;46.60;;;;;;5076033;28;20037;-65
2023/10/05 13:25:49;;;;;;;9.70;4.40;;;25.40;46.90;;;;;;5075753;28;20028;-63
2023/10/05 13:28:17;;;;;;;9.50;4.60;;;25.30;46.50;;;;;;5057438;28;20392;-63
2023/10/05 13:30:47;;;;;;;8.07;4.53;;;25.10;46.90;;;;;;5075101;28;20078;-62
2023/10/05 13:33:21;;;;;;;10.48;4.43;;;25.00;47.20;;;;;;5057493;28;20017;-63
2023/10/05 13:35:47;;;;;;;8.40;5.10;;;25.00;47.50;;;;;;5075389;28;20028;-63
2023/10/05 13:38:13;;;;;;;11.25;5.03;;;25.00;47.80;;;;;;5075316;28;20059;-63
2023/10/05 13:40:57;;;;;;;7.47;4.30;;;25.00;47.60;;;;;;5074831;28;20082;-64
2023/10/05 13:43:27;;;;;;;9.77;4.57;;;25.10;47.70;;;;;;5075010;28;20040;-64
2023/10/05 13:48:40;;;;;;;6.95;4.00;;;25.00;47.70;;;;;;5074944;28;20029;-64
2023/10/05 13:51:11;;;;;;;8.80;4.50;;;25.00;47.90;;;;;;5057607;28;20104;-64
2023/10/05 13:53:45;;;;;;;6.53;4.00;;;25.00;48.20;;;;;;5074922;28;20078;-64
2023/10/05 13:56:12;;;;;;;6.25;3.75;;;25.00;48.10;;;;;;5075216;28;20360;-64
2023/10/05 13:58:41;;;;;;;6.15;3.47;;;25.10;48.10;;;;;;5074793;28;20035;-64
2023/10/05 14:01:15;;;;;;;9.63;4.30;;;25.10;48.20;;;;;;5074892;28;20013;-64
2023/10/05 14:03:45;;;;;;;9.43;4.30;;;25.10;48.10;;;;;;5041725;28;20073;-64
2023/10/05 14:06:20;;;;;;;9.25;4.50;;;25.00;47.50;;;;;;5075031;28;20032;-63
2023/10/05 14:08:46;;;;;;;9.80;4.35;;;24.90;47.40;;;;;;5074621;28;20039;-63